Time;durP1;ratioP1;P1;durP2;ratioP2;P2;SDS_P1;SDS_P2;PMS_P1;PMS_P2;Temp;Humidity;BMP_temperature;BMP_pressure;BME280_temperature;BME280_humidity;BME280_pressure;Samples;Min_cycle;Max_cycle;Signal;HPM_P1;HPM_P2
2022/03/07 00:00:56;;;;;;;6.75;4.32;;;9.40;61.40;;;;;;5074845;28;20028;-62
2022/03/07 00:03:24;;;;;;;4.75;4.22;;;9.40;61.70;;;;;;5075239;28;20021;-64
2022/03/07 00:05:49;;;;;;;5.38;4.35;;;9.40;61.80;;;;;;5075390;28;20036;-66
2022/03/07 00:08:15;;;;;;;5.18;4.40;;;9.40;61.80;;;;;;5075070;28;20078;-73
2022/03/07 00:10:41;;;;;;;7.15;4.50;;;9.30;61.80;;;;;;5075052;28;20431;-64
2022/03/07 00:13:06;;;;;;;5.85;4.32;;;9.30;61.60;;;;;;5074850;28;20111;-70
2022/03/07 00:15:32;;;;;;;5.00;4.35;;;9.30;61.60;;;;;;5074781;28;20472;-67
2022/03/07 00:17:57;;;;;;;5.70;4.60;;;9.30;61.60;;;;;;5056810;28;20029;-65
2022/03/07 00:20:23;;;;;;;5.72;4.57;;;9.30;61.40;;;;;;5075075;28;20100;-62
2022/03/07 00:22:48;;;;;;;5.82;4.95;;;9.30;61.50;;;;;;5074718;28;20028;-67
2022/03/07 00:25:16;;;;;;;8.07;4.97;;;9.20;61.50;;;;;;5074672;28;20028;-62
2022/03/07 00:27:41;;;;;;;5.80;4.80;;;9.20;61.60;;;;;;5074619;28;20154;-64
2022/03/07 00:30:08;;;;;;;6.53;4.90;;;9.20;61.60;;;;;;5074454;28;20104;-62
2022/03/07 00:32:34;;;;;;;6.60;4.65;;;9.20;61.40;;;;;;5074771;28;20457;-68
2022/03/07 00:34:59;;;;;;;5.32;4.68;;;9.10;61.80;;;;;;5074335;28;20492;-67
2022/03/07 00:37:25;;;;;;;7.32;5.22;;;9.10;61.90;;;;;;5074487;28;20112;-64
2022/03/07 00:39:51;;;;;;;6.20;4.75;;;9.10;61.70;;;;;;5074343;28;20023;-63
2022/03/07 00:42:17;;;;;;;7.22;5.90;;;9.10;62.00;;;;;;5074586;28;20024;-69
2022/03/07 00:44:42;;;;;;;6.40;4.57;;;9.00;62.10;;;;;;5073995;28;20079;-64
2022/03/07 00:47:08;;;;;;;5.63;4.47;;;9.10;61.90;;;;;;5074234;28;20033;-73
2022/03/07 00:49:34;;;;;;;5.57;4.45;;;9.00;62.30;;;;;;5074229;28;20024;-71
2022/03/07 00:52:00;;;;;;;9.73;5.78;;;9.00;62.20;;;;;;5074275;28;20385;-72
2022/03/07 00:54:25;;;;;;;5.93;4.68;;;9.00;62.30;;;;;;5074163;28;20035;-63
2022/03/07 00:56:51;;;;;;;7.70;5.20;;;9.00;62.50;;;;;;5074068;28;20473;-62
2022/03/07 00:59:16;;;;;;;6.63;5.30;;;9.00;62.50;;;;;;5073738;28;20477;-62
2022/03/07 01:01:42;;;;;;;7.50;5.15;;;9.00;62.40;;;;;;5074125;28;20029;-68
2022/03/07 01:04:08;;;;;;;9.27;5.15;;;8.90;62.50;;;;;;5073826;28;20025;-63
2022/03/07 01:06:33;;;;;;;6.03;4.90;;;8.90;62.40;;;;;;5073972;28;20028;-66
2022/03/07 01:08:59;;;;;;;7.82;4.68;;;8.90;63.20;;;;;;5073787;28;20029;-71
2022/03/07 01:11:24;;;;;;;5.05;4.55;;;8.90;62.40;;;;;;5073698;28;20112;-63
2022/03/07 01:13:50;;;;;;;5.93;5.00;;;8.90;62.60;;;;;;5073412;28;20473;-69
2022/03/07 01:16:15;;;;;;;6.65;4.97;;;8.90;63.00;;;;;;5073163;28;20446;-70
2022/03/07 01:18:41;;;;;;;6.25;5.18;;;8.90;62.40;;;;;;5073541;28;20020;-68
2022/03/07 01:21:07;;;;;;;7.15;5.18;;;8.80;62.40;;;;;;5073792;28;20047;-65
2022/03/07 01:23:32;;;;;;;7.00;5.55;;;8.80;62.60;;;;;;5073672;28;20055;-65
2022/03/07 01:25:58;;;;;;;7.20;5.47;;;8.80;62.60;;;;;;5055642;28;20110;-72
2022/03/07 01:28:23;;;;;;;6.95;5.05;;;8.80;62.60;;;;;;5073135;28;20100;-62
2022/03/07 01:30:49;;;;;;;6.45;5.50;;;8.70;62.60;;;;;;5073411;28;20378;-65
2022/03/07 01:33:15;;;;;;;8.10;5.10;;;8.70;62.70;;;;;;5073530;28;20478;-61
2022/03/07 01:35:40;;;;;;;7.78;5.13;;;8.70;62.50;;;;;;5073224;28;20055;-67
2022/03/07 01:38:06;;;;;;;5.68;4.68;;;8.60;62.70;;;;;;5073632;28;20033;-64
2022/03/07 01:40:33;;;;;;;5.35;4.80;;;8.60;62.70;;;;;;5073631;28;20012;-71
2022/03/07 01:42:58;;;;;;;7.47;5.50;;;8.60;62.80;;;;;;5073039;28;20020;-75
2022/03/07 01:45:24;;;;;;;5.65;4.90;;;8.60;62.70;;;;;;5073267;28;20024;-74
2022/03/07 01:47:49;;;;;;;5.88;5.20;;;8.50;62.80;;;;;;5073099;28;20028;-75
2022/03/07 01:50:18;;;;;;;7.03;4.93;;;8.60;62.60;;;;;;5072798;28;20021;-74
2022/03/07 01:52:47;;;;;;;5.88;5.07;;;8.50;62.70;;;;;;5073301;28;20059;-68
2022/03/07 01:55:14;;;;;;;5.60;5.05;;;8.50;63.00;;;;;;5073149;28;20048;-65
2022/03/07 01:57:42;;;;;;;7.13;5.18;;;8.50;62.90;;;;;;5072843;28;20036;-67
2022/03/07 02:00:11;;;;;;;7.40;5.30;;;8.50;63.00;;;;;;5072921;28;20024;-68
2022/03/07 02:02:37;;;;;;;8.70;5.85;;;8.40;63.10;;;;;;5072967;28;20385;-67
2022/03/07 02:05:04;;;;;;;7.40;5.20;;;8.40;62.80;;;;;;5073046;28;20020;-71
2022/03/07 02:07:30;;;;;;;5.50;4.82;;;8.50;62.90;;;;;;5073073;28;20528;-69
2022/03/07 02:09:58;;;;;;;7.45;5.95;;;8.40;62.80;;;;;;5072885;28;20100;-70
2022/03/07 02:12:24;;;;;;;6.05;5.43;;;8.40;62.80;;;;;;5072801;28;20054;-70
2022/03/07 02:14:50;;;;;;;8.20;5.40;;;8.40;62.90;;;;;;5072908;28;20028;-72
2022/03/07 02:17:15;;;;;;;8.85;6.10;;;8.40;62.90;;;;;;5055118;28;20039;-71
2022/03/07 02:19:42;;;;;;;9.75;6.00;;;8.40;63.00;;;;;;5072945;28;20381;-66
2022/03/07 02:22:07;;;;;;;8.57;5.97;;;8.40;62.80;;;;;;5072887;28;20104;-68
2022/03/07 02:24:33;;;;;;;7.32;6.28;;;8.40;63.00;;;;;;5054951;28;20421;-67
2022/03/07 02:27:01;;;;;;;6.88;5.63;;;8.30;63.00;;;;;;5072632;28;20031;-67
2022/03/07 02:29:28;;;;;;;7.53;6.22;;;8.40;63.00;;;;;;5075479;28;20024;-72
2022/03/07 02:31:54;;;;;;;7.60;5.75;;;8.30;62.90;;;;;;5076785;28;20032;-62
2022/03/07 02:34:19;;;;;;;7.75;5.75;;;8.30;63.10;;;;;;5076697;28;20465;-61
2022/03/07 02:36:45;;;;;;;6.10;5.50;;;8.30;63.20;;;;;;5076761;28;20120;-63
2022/03/07 02:39:11;;;;;;;8.05;6.15;;;8.30;63.20;;;;;;5076511;28;20028;-61
2022/03/07 02:41:39;;;;;;;6.72;5.95;;;8.30;63.30;;;;;;5076853;28;20025;-61
2022/03/07 02:44:05;;;;;;;8.70;5.70;;;8.30;63.80;;;;;;5076738;28;20043;-62
2022/03/07 02:46:30;;;;;;;7.63;5.65;;;8.30;63.10;;;;;;5076696;28;20532;-62
2022/03/07 02:48:56;;;;;;;8.70;5.80;;;8.30;63.10;;;;;;5076608;28;20025;-62
2022/03/07 02:51:21;;;;;;;9.40;5.60;;;8.20;63.10;;;;;;5076458;28;20378;-68
2022/03/07 02:53:49;;;;;;;8.95;6.72;;;8.20;63.10;;;;;;5076312;28;20580;-65
2022/03/07 02:56:15;;;;;;;6.60;5.90;;;8.20;63.20;;;;;;5076522;28;20020;-64
2022/03/07 02:58:40;;;;;;;6.88;6.22;;;8.20;63.30;;;;;;5076495;28;20457;-65
2022/03/07 03:01:06;;;;;;;8.65;5.57;;;8.20;63.40;;;;;;5076305;28;20063;-62
2022/03/07 03:03:32;;;;;;;9.95;6.03;;;8.20;63.30;;;;;;5076437;28;20059;-63
2022/03/07 03:05:57;;;;;;;6.97;6.22;;;8.10;63.20;;;;;;5076089;28;20093;-70
2022/03/07 03:08:23;;;;;;;7.78;6.18;;;8.10;63.00;;;;;;5076042;28;20469;-61
2022/03/07 03:10:50;;;;;;;6.57;5.47;;;8.10;63.20;;;;;;5076233;28;20071;-61
2022/03/07 03:13:20;;;;;;;7.65;6.07;;;8.00;63.20;;;;;;5076048;28;20161;-69
2022/03/07 03:15:47;;;;;;;6.93;6.00;;;8.00;63.20;;;;;;5076193;28;20052;-68
2022/03/07 03:18:13;;;;;;;7.80;6.72;;;8.00;63.50;;;;;;5075945;28;20027;-61
2022/03/07 03:20:39;;;;;;;7.90;6.78;;;8.00;63.40;;;;;;5075941;28;20516;-64
2022/03/07 03:23:05;;;;;;;6.63;5.95;;;8.00;63.30;;;;;;5075597;28;20035;-67
2022/03/07 03:25:31;;;;;;;10.02;7.05;;;8.00;64.20;;;;;;5076080;28;20444;-61
2022/03/07 03:27:56;;;;;;;7.60;6.55;;;8.00;63.50;;;;;;5075534;28;20024;-61
2022/03/07 03:30:22;;;;;;;8.18;6.45;;;8.00;63.70;;;;;;5075758;28;20021;-64
2022/03/07 03:32:48;;;;;;;10.20;7.50;;;8.00;63.80;;;;;;5075677;28;20033;-70
2022/03/07 03:35:14;;;;;;;8.50;7.10;;;7.90;63.80;;;;;;5075531;28;20030;-68
2022/03/07 03:37:39;;;;;;;8.27;6.70;;;7.90;63.90;;;;;;5075281;28;20029;-66
2022/03/07 03:40:07;;;;;;;9.50;7.30;;;7.90;63.80;;;;;;5075330;28;20059;-67
2022/03/07 03:42:32;;;;;;;8.35;7.43;;;7.90;63.80;;;;;;5075617;28;20069;-65
2022/03/07 03:44:58;;;;;;;10.77;7.75;;;7.90;63.80;;;;;;5075533;28;20486;-74
2022/03/07 03:47:24;;;;;;;9.60;7.32;;;7.90;63.90;;;;;;5075572;28;20033;-64
2022/03/07 03:49:49;;;;;;;9.88;7.38;;;7.80;63.90;;;;;;5075538;28;20090;-69
2022/03/07 03:52:15;;;;;;;7.97;7.18;;;7.90;63.80;;;;;;5091149;28;20059;-65
2022/03/07 03:54:40;;;;;;;9.57;7.53;;;7.80;64.00;;;;;;5073754;28;20028;-75
2022/03/07 03:57:06;;;;;;;8.18;6.97;;;7.80;64.00;;;;;;5057282;28;20024;-69
2022/03/07 03:59:33;;;;;;;9.48;8.38;;;7.80;64.10;;;;;;5082042;28;20059;-75
2022/03/07 04:01:59;;;;;;;8.70;7.80;;;7.80;64.20;;;;;;5095641;28;20473;-64
2022/03/07 04:04:24;;;;;;;9.73;7.18;;;7.70;64.30;;;;;;5095258;28;20058;-65
2022/03/07 04:06:50;;;;;;;9.60;7.47;;;7.70;64.40;;;;;;5093960;28;20028;-69
2022/03/07 04:09:20;;;;;;;13.70;8.23;;;7.70;64.60;;;;;;5074469;28;20028;-67
2022/03/07 04:11:46;;;;;;;10.98;7.32;;;7.70;64.70;;;;;;5073525;28;20032;-65
2022/03/07 04:14:13;;;;;;;10.38;6.97;;;7.60;64.70;;;;;;5074932;28;20024;-72
2022/03/07 04:16:39;;;;;;;10.98;7.53;;;7.60;64.80;;;;;;5074892;28;20427;-74
2022/03/07 04:19:06;;;;;;;10.90;8.05;;;7.70;64.90;;;;;;5074635;28;20466;-69
2022/03/07 04:21:33;;;;;;;10.57;7.30;;;7.70;64.80;;;;;;5074662;28;20067;-74
2022/03/07 04:23:58;;;;;;;10.30;7.63;;;7.60;64.70;;;;;;5074500;28;20063;-69
2022/03/07 04:26:24;;;;;;;10.43;8.15;;;7.60;64.70;;;;;;5074647;28;20079;-70
2022/03/07 04:28:49;;;;;;;8.60;7.80;;;7.60;64.80;;;;;;5074690;28;20028;-71
2022/03/07 04:31:15;;;;;;;8.68;7.30;;;7.50;64.70;;;;;;5074562;28;20097;-66
2022/03/07 04:33:41;;;;;;;10.32;8.27;;;7.50;64.80;;;;;;5074503;28;20355;-71
2022/03/07 04:36:06;;;;;;;8.25;7.32;;;7.50;64.70;;;;;;5074285;28;20035;-63
2022/03/07 04:38:32;;;;;;;8.48;7.13;;;7.50;64.80;;;;;;5074299;28;20064;-69
2022/03/07 04:40:58;;;;;;;10.20;7.53;;;7.50;64.70;;;;;;5086269;28;20027;-61
2022/03/07 04:43:24;;;;;;;9.68;7.57;;;7.50;65.00;;;;;;5093558;28;20038;-61
2022/03/07 04:45:52;;;;;;;8.52;7.28;;;7.50;65.00;;;;;;5093464;28;20023;-66
2022/03/07 04:48:18;;;;;;;8.98;7.15;;;7.40;65.00;;;;;;5094267;28;20020;-62
2022/03/07 04:50:44;;;;;;;8.60;7.57;;;7.50;65.10;;;;;;5093456;28;20024;-73
2022/03/07 04:53:09;;;;;;;7.60;6.85;;;7.50;65.10;;;;;;5094264;28;20358;-74
2022/03/07 04:55:35;;;;;;;9.00;8.13;;;7.40;65.30;;;;;;5094274;28;20024;-70
2022/03/07 04:58:00;;;;;;;9.55;7.63;;;7.40;65.20;;;;;;5094520;28;20082;-67
2022/03/07 05:00:26;;;;;;;9.38;7.10;;;7.40;65.10;;;;;;5094332;28;20485;-70
2022/03/07 05:02:53;;;;;;;12.32;7.25;;;7.40;65.20;;;;;;5094203;28;20350;-74
2022/03/07 05:05:20;;;;;;;11.15;7.95;;;7.40;65.20;;;;;;5093815;28;20543;-68
2022/03/07 05:07:45;;;;;;;8.52;7.07;;;7.30;65.30;;;;;;5094347;28;20085;-71
2022/03/07 05:10:11;;;;;;;12.07;7.53;;;7.30;65.50;;;;;;5094256;28;20016;-70
2022/03/07 05:12:37;;;;;;;14.60;8.43;;;7.30;65.50;;;;;;5094138;28;20032;-74
2022/03/07 05:15:03;;;;;;;9.85;7.45;;;7.30;65.50;;;;;;5094119;28;20130;-66
2022/03/07 05:17:29;;;;;;;10.43;7.60;;;7.30;65.50;;;;;;5093875;28;20072;-63
2022/03/07 05:19:55;;;;;;;10.93;8.32;;;7.30;65.80;;;;;;5075722;28;20122;-71
2022/03/07 05:22:20;;;;;;;12.18;7.53;;;7.20;65.60;;;;;;5094010;28;20081;-62
2022/03/07 05:24:46;;;;;;;9.00;8.10;;;7.20;65.70;;;;;;5093933;28;20048;-64
2022/03/07 05:27:11;;;;;;;8.70;7.22;;;7.20;65.50;;;;;;5094026;28;20020;-63
2022/03/07 05:29:37;;;;;;;10.30;7.80;;;7.20;65.60;;;;;;5093720;28;20123;-61
2022/03/07 05:32:03;;;;;;;11.75;7.72;;;7.20;65.60;;;;;;5093753;28;20042;-61
2022/03/07 05:34:29;;;;;;;7.82;6.88;;;7.20;65.60;;;;;;5093153;28;20028;-65
2022/03/07 05:36:54;;;;;;;10.18;8.13;;;7.20;65.80;;;;;;5093732;28;20369;-63
2022/03/07 05:39:20;;;;;;;12.23;9.18;;;7.10;65.50;;;;;;5093732;28;20111;-64
2022/03/07 05:41:46;;;;;;;10.50;7.85;;;7.00;65.80;;;;;;5093686;28;20468;-75
2022/03/07 05:44:11;;;;;;;8.60;7.32;;;7.10;63.80;;;;;;5093704;28;20469;-76
2022/03/07 05:46:37;;;;;;;9.70;8.00;;;7.30;62.50;;;;;;5093257;28;20440;-76
2022/03/07 05:49:03;;;;;;;13.07;7.88;;;7.30;61.30;;;;;;5093783;28;20024;-66
2022/03/07 05:51:30;;;;;;;9.43;8.10;;;7.30;63.90;;;;;;5093404;28;20036;-74
2022/03/07 05:53:56;;;;;;;10.88;8.27;;;7.20;64.20;;;;;;5093515;28;20024;-67
2022/03/07 05:56:22;;;;;;;11.45;9.23;;;7.20;64.70;;;;;;5089847;28;20024;-68
2022/03/07 05:58:47;;;;;;;12.25;9.07;;;7.10;64.20;;;;;;5091787;28;20337;-60
2022/03/07 06:01:14;;;;;;;13.15;9.25;;;7.10;64.30;;;;;;5083901;28;20023;-61
2022/03/07 06:03:39;;;;;;;12.15;9.65;;;7.00;64.70;;;;;;5085266;28;20050;-70
2022/03/07 06:06:05;;;;;;;10.93;9.00;;;7.00;64.40;;;;;;5082299;28;20064;-69
2022/03/07 06:08:30;;;;;;;10.82;9.18;;;7.00;64.50;;;;;;5066079;28;20024;-69
2022/03/07 06:10:56;;;;;;;11.48;9.30;;;6.90;64.50;;;;;;5092233;28;20077;-66
2022/03/07 06:13:21;;;;;;;12.07;8.93;;;6.90;64.60;;;;;;5089082;28;20072;-69
2022/03/07 06:15:47;;;;;;;14.50;9.32;;;6.90;64.70;;;;;;5089959;28;20467;-68
2022/03/07 06:18:13;;;;;;;10.23;9.23;;;6.80;64.60;;;;;;5088153;28;20381;-62
2022/03/07 06:20:39;;;;;;;13.93;8.95;;;6.80;65.10;;;;;;5087200;28;20133;-64
2022/03/07 06:23:05;;;;;;;11.52;9.20;;;6.80;65.30;;;;;;5092063;28;20023;-70
2022/03/07 06:25:33;;;;;;;13.90;10.63;;;6.80;64.60;;;;;;5091825;28;20032;-70
2022/03/07 06:28:02;;;;;;;14.40;9.75;;;6.80;64.40;;;;;;5077396;28;20101;-67
2022/03/07 06:30:28;;;;;;;13.35;9.48;;;6.70;64.20;;;;;;5074648;28;20028;-69
2022/03/07 06:32:53;;;;;;;14.55;9.85;;;6.70;64.20;;;;;;5078990;28;20036;-70
2022/03/07 06:35:19;;;;;;;12.43;10.00;;;6.60;64.30;;;;;;5059096;28;20039;-69
2022/03/07 06:37:49;;;;;;;11.95;10.20;;;6.60;64.30;;;;;;5082282;28;20103;-70
2022/03/07 06:40:16;;;;;;;14.85;10.52;;;6.60;64.30;;;;;;5073425;28;20021;-70
2022/03/07 06:42:41;;;;;;;13.13;10.25;;;6.50;64.20;;;;;;5080877;28;20033;-69
2022/03/07 06:45:08;;;;;;;13.98;9.82;;;6.60;64.40;;;;;;5078476;28;20548;-62
2022/03/07 06:47:33;;;;;;;13.27;11.32;;;6.50;64.10;;;;;;5085376;28;20521;-66
2022/03/07 06:49:59;;;;;;;15.75;11.27;;;6.50;64.20;;;;;;5086308;28;20095;-68
2022/03/07 06:52:25;;;;;;;14.25;10.82;;;6.40;64.20;;;;;;5086958;28;20547;-62
2022/03/07 06:54:51;;;;;;;15.90;13.00;;;6.40;64.10;;;;;;5072462;28;20023;-66
2022/03/07 06:57:18;;;;;;;16.60;10.73;;;6.40;64.20;;;;;;5083340;28;20102;-66
2022/03/07 06:59:43;;;;;;;15.43;10.25;;;6.40;64.20;;;;;;5088567;28;20503;-60
2022/03/07 07:02:09;;;;;;;20.63;11.30;;;6.40;64.30;;;;;;5088555;28;20055;-62
2022/03/07 07:04:35;;;;;;;25.23;12.02;;;6.40;64.40;;;;;;5075953;28;20021;-61
2022/03/07 07:07:01;;;;;;;33.15;13.80;;;6.50;64.40;;;;;;5082910;28;20496;-61
2022/03/07 07:09:26;;;;;;;16.30;10.48;;;6.50;64.00;;;;;;5081223;28;20039;-61
2022/03/07 07:11:52;;;;;;;34.30;12.77;;;6.50;64.30;;;;;;5089533;28;20085;-62
2022/03/07 07:14:17;;;;;;;13.70;10.27;;;6.60;63.90;;;;;;5091315;28;20021;-61
2022/03/07 07:16:43;;;;;;;12.57;9.88;;;6.60;63.60;;;;;;5094421;28;20032;-67
2022/03/07 07:19:08;;;;;;;16.30;10.63;;;6.60;63.50;;;;;;5094744;28;20081;-60
2022/03/07 07:21:34;;;;;;;13.88;10.13;;;6.70;64.10;;;;;;5095873;28;20024;-68
2022/03/07 07:24:00;;;;;;;12.25;10.50;;;6.70;63.30;;;;;;5096145;28;20028;-64
2022/03/07 07:26:26;;;;;;;10.88;9.63;;;6.80;63.40;;;;;;5095803;28;20469;-61
2022/03/07 07:28:52;;;;;;;16.00;10.50;;;6.70;63.40;;;;;;5096088;28;20017;-68
2022/03/07 07:31:18;;;;;;;12.27;10.05;;;6.80;63.10;;;;;;5095760;28;20392;-67
2022/03/07 07:33:44;;;;;;;14.90;10.73;;;6.80;63.20;;;;;;5096074;28;20059;-61
2022/03/07 07:36:09;;;;;;;12.75;10.25;;;6.90;63.10;;;;;;5095497;28;20027;-62
2022/03/07 07:38:35;;;;;;;12.85;10.80;;;6.90;63.20;;;;;;5095783;28;20028;-63
2022/03/07 07:41:00;;;;;;;17.75;10.65;;;6.90;63.10;;;;;;5095865;28;20027;-63
2022/03/07 07:43:26;;;;;;;15.85;9.82;;;7.00;62.80;;;;;;5095810;28;20028;-66
2022/03/07 07:45:51;;;;;;;14.13;8.88;;;7.00;62.50;;;;;;5095454;28;20035;-61
2022/03/07 07:48:17;;;;;;;11.32;9.68;;;7.00;62.60;;;;;;5095549;28;20031;-60
2022/03/07 07:50:42;;;;;;;12.77;9.48;;;7.00;62.70;;;;;;5095818;28;20469;-67
2022/03/07 07:53:08;;;;;;;13.70;9.02;;;7.00;62.80;;;;;;5095537;28;20024;-69
2022/03/07 07:55:34;;;;;;;14.48;8.30;;;7.10;62.10;;;;;;5095653;28;20476;-62
2022/03/07 07:57:59;;;;;;;9.38;8.18;;;7.10;61.70;;;;;;5095426;28;20082;-61
2022/03/07 08:00:25;;;;;;;10.65;8.30;;;7.20;61.50;;;;;;5095328;28;20023;-62
2022/03/07 08:02:51;;;;;;;12.00;8.13;;;7.10;61.20;;;;;;5095646;28;20482;-65
2022/03/07 08:05:18;;;;;;;13.50;8.30;;;7.10;61.10;;;;;;5095184;28;20036;-69
2022/03/07 08:07:44;;;;;;;12.40;8.05;;;7.10;61.30;;;;;;5095323;28;20065;-60
2022/03/07 08:10:12;;;;;;;8.23;7.00;;;7.10;60.80;;;;;;5095303;28;20024;-69
2022/03/07 08:12:38;;;;;;;9.07;8.18;;;7.10;60.90;;;;;;5094637;28;20055;-63
2022/03/07 08:15:05;;;;;;;9.38;7.43;;;7.10;61.00;;;;;;5095257;28;20465;-67
2022/03/07 08:17:31;;;;;;;12.90;8.00;;;7.00;60.70;;;;;;5094875;28;20058;-61
2022/03/07 08:19:57;;;;;;;9.98;7.95;;;7.00;60.90;;;;;;5095245;28;20024;-67
2022/03/07 08:22:22;;;;;;;9.60;7.80;;;7.00;61.10;;;;;;5094995;28;20385;-61
2022/03/07 08:24:48;;;;;;;9.13;8.05;;;6.90;60.70;;;;;;5094932;28;20107;-61
2022/03/07 08:27:13;;;;;;;12.25;7.65;;;6.90;61.20;;;;;;5093534;28;20054;-63
2022/03/07 08:29:39;;;;;;;10.32;7.85;;;6.90;61.00;;;;;;5094932;28;20032;-61
2022/03/07 08:32:05;;;;;;;8.43;7.13;;;6.90;60.70;;;;;;5094596;28;20036;-65
2022/03/07 08:34:31;;;;;;;7.88;7.07;;;6.90;60.70;;;;;;5094452;28;20118;-61
2022/03/07 08:36:57;;;;;;;9.75;7.40;;;6.90;60.70;;;;;;5094732;28;20123;-60
2022/03/07 08:39:23;;;;;;;9.27;6.97;;;7.00;60.60;;;;;;5094729;28;20461;-63
2022/03/07 08:41:48;;;;;;;8.50;7.05;;;7.00;60.20;;;;;;5076281;28;20377;-62
2022/03/07 08:44:14;;;;;;;8.90;7.15;;;7.00;59.90;;;;;;5094482;28;20465;-61
2022/03/07 08:46:39;;;;;;;7.65;6.95;;;7.00;59.70;;;;;;5094766;28;20103;-63
2022/03/07 08:49:05;;;;;;;7.10;5.97;;;7.10;59.90;;;;;;5094652;28;20013;-62
2022/03/07 08:51:31;;;;;;;6.90;6.10;;;7.00;58.50;;;;;;5094517;28;20039;-69
2022/03/07 08:53:56;;;;;;;9.95;6.22;;;6.90;60.30;;;;;;5094412;28;20020;-60
2022/03/07 08:56:22;;;;;;;8.35;6.43;;;7.00;60.10;;;;;;5093987;28;20415;-69
2022/03/07 08:58:48;;;;;;;8.93;7.47;;;7.10;59.40;;;;;;5094522;28;20511;-67
2022/03/07 09:01:15;;;;;;;7.32;6.57;;;7.10;59.30;;;;;;5094446;28;20117;-64
2022/03/07 09:03:40;;;;;;;9.07;7.32;;;7.20;59.50;;;;;;5094136;28;20028;-70
2022/03/07 09:06:07;;;;;;;8.60;6.57;;;7.20;58.80;;;;;;5094189;28;20426;-67
2022/03/07 09:08:33;;;;;;;6.28;5.45;;;7.20;59.80;;;;;;5094387;28;20055;-68
2022/03/07 09:10:58;;;;;;;8.60;6.45;;;7.30;59.40;;;;;;5093739;28;20059;-68
2022/03/07 09:13:24;;;;;;;8.07;6.22;;;7.20;58.50;;;;;;5093983;28;20085;-63
2022/03/07 09:15:49;;;;;;;8.90;6.03;;;7.20;58.50;;;;;;5094143;28;20028;-62
2022/03/07 09:18:15;;;;;;;8.98;6.00;;;7.10;59.10;;;;;;5094037;28;20460;-66
2022/03/07 09:20:41;;;;;;;6.53;5.90;;;7.20;59.40;;;;;;5093966;28;20477;-65
2022/03/07 09:23:06;;;;;;;9.07;6.38;;;7.20;59.00;;;;;;5094062;28;20055;-69
2022/03/07 09:25:32;;;;;;;7.22;5.45;;;7.20;58.10;;;;;;5093588;28;20031;-68
2022/03/07 09:27:57;;;;;;;6.68;5.22;;;7.00;58.00;;;;;;5093852;28;20016;-67
2022/03/07 09:30:24;;;;;;;6.38;5.60;;;7.00;58.10;;;;;;5093876;28;20060;-63
2022/03/07 09:32:49;;;;;;;7.63;5.55;;;7.00;57.60;;;;;;5093807;28;20035;-64
2022/03/07 09:35:15;;;;;;;5.97;5.32;;;6.90;57.70;;;;;;5093558;28;20161;-69
2022/03/07 09:37:41;;;;;;;7.82;4.82;;;6.80;57.60;;;;;;5093320;28;20484;-68
2022/03/07 09:40:07;;;;;;;6.15;5.55;;;6.80;58.30;;;;;;5093389;28;20027;-66
2022/03/07 09:42:33;;;;;;;7.75;5.57;;;6.90;58.50;;;;;;5093508;28;20514;-68
2022/03/07 09:44:59;;;;;;;7.25;5.07;;;7.00;57.80;;;;;;5093553;28;20051;-66
2022/03/07 09:47:25;;;;;;;5.60;4.47;;;7.10;57.90;;;;;;5093607;28;20028;-69
2022/03/07 09:49:51;;;;;;;6.85;4.72;;;7.10;56.70;;;;;;5093373;28;20034;-61
2022/03/07 09:52:17;;;;;;;7.15;5.22;;;7.00;57.00;;;;;;5093435;28;20484;-64
2022/03/07 09:54:43;;;;;;;4.97;4.43;;;7.00;57.20;;;;;;5092930;28;20030;-69
2022/03/07 09:57:08;;;;;;;7.82;5.38;;;7.00;57.30;;;;;;5093439;28;20107;-64
2022/03/07 09:59:35;;;;;;;6.28;4.80;;;7.10;57.50;;;;;;5093502;28;20020;-66
2022/03/07 10:02:03;;;;;;;6.75;5.22;;;7.00;56.80;;;;;;5093215;28;20126;-68
2022/03/07 10:04:30;;;;;;;7.93;5.43;;;6.90;57.10;;;;;;5075332;28;20366;-69
2022/03/07 10:06:56;;;;;;;5.68;5.07;;;6.80;57.50;;;;;;5093195;28;20056;-70
2022/03/07 10:09:23;;;;;;;6.30;4.63;;;6.80;57.20;;;;;;5093115;28;20055;-70
2022/03/07 10:11:54;;;;;;;5.38;4.82;;;6.80;57.60;;;;;;5092961;28;20028;-70
2022/03/07 10:14:31;;;;;;;6.05;5.15;;;6.80;57.20;;;;;;5093376;28;20024;-67
2022/03/07 10:16:56;;;;;;;5.88;5.03;;;6.70;58.20;;;;;;5093065;28;20024;-68
2022/03/07 10:19:22;;;;;;;4.82;4.43;;;6.70;57.50;;;;;;5093074;28;20369;-70
2022/03/07 10:21:50;;;;;;;5.00;4.47;;;6.70;57.90;;;;;;5093033;28;20024;-69
2022/03/07 10:24:16;;;;;;;6.90;4.70;;;6.70;57.60;;;;;;5092840;28;20049;-64
2022/03/07 10:26:43;;;;;;;6.63;5.10;;;6.70;58.20;;;;;;5092895;28;20472;-62
2022/03/07 10:29:09;;;;;;;6.03;4.63;;;6.80;57.90;;;;;;5093246;28;20510;-69
2022/03/07 10:31:37;;;;;;;4.97;4.22;;;6.80;57.20;;;;;;5074804;28;20055;-62
2022/03/07 10:34:08;;;;;;;6.93;4.30;;;7.00;57.20;;;;;;5092988;28;20085;-67
2022/03/07 10:36:41;;;;;;;5.97;4.38;;;7.00;57.00;;;;;;5092901;28;20032;-69
2022/03/07 10:39:12;;;;;;;5.55;4.40;;;7.10;57.40;;;;;;5092837;28;20024;-70
2022/03/07 10:41:40;;;;;;;5.35;4.82;;;7.10;57.20;;;;;;5092977;28;20028;-66
2022/03/07 10:44:09;;;;;;;7.13;5.03;;;7.20;56.80;;;;;;5092892;28;20107;-70
2022/03/07 10:46:35;;;;;;;5.72;4.93;;;7.20;56.40;;;;;;5092847;28;20488;-69
2022/03/07 10:49:01;;;;;;;6.53;4.85;;;7.10;57.30;;;;;;5092846;28;20055;-69
2022/03/07 10:51:27;;;;;;;6.40;4.97;;;7.00;56.70;;;;;;5096750;28;20503;-69
2022/03/07 10:53:54;;;;;;;6.20;4.70;;;7.00;57.10;;;;;;5096810;28;20070;-69
2022/03/07 10:56:21;;;;;;;4.75;4.25;;;7.00;57.20;;;;;;5096520;28;20024;-69
2022/03/07 10:58:53;;;;;;;5.00;4.47;;;7.00;56.50;;;;;;5096766;28;20024;-67
2022/03/07 11:01:32;;;;;;;5.03;4.43;;;7.00;56.50;;;;;;5096585;28;20052;-69
2022/03/07 11:03:59;;;;;;;5.45;3.97;;;6.90;56.70;;;;;;5096953;28;20046;-69
2022/03/07 11:06:26;;;;;;;6.47;4.95;;;6.80;57.30;;;;;;5096353;28;20028;-69
2022/03/07 11:08:52;;;;;;;6.38;4.47;;;6.90;57.50;;;;;;5096187;28;20043;-69
2022/03/07 11:11:20;;;;;;;5.10;3.90;;;6.90;57.00;;;;;;5095405;28;20032;-69
2022/03/07 11:13:53;;;;;;;4.55;4.15;;;6.90;57.70;;;;;;5096256;28;20425;-67
2022/03/07 11:16:19;;;;;;;;;;;7.10;58.30;;;;;;5096641;28;20016;-69
2022/03/07 11:18:51;;;;;;;6.40;4.43;;;7.20;57.60;;;;;;5095442;28;19914;-62
2022/03/07 11:21:18;;;;;;;3.80;3.50;;;7.30;58.20;;;;;;5096248;28;20110;-64
2022/03/07 11:23:44;;;;;;;4.22;3.75;;;7.40;58.30;;;;;;5096270;28;20016;-68
2022/03/07 11:26:11;;;;;;;10.80;3.72;;;7.50;57.10;;;;;;5095207;28;20024;-62
2022/03/07 11:28:37;;;;;;;6.13;4.38;;;7.60;58.30;;;;;;5069428;28;20112;-67
2022/03/07 11:31:02;;;;;;;4.97;4.15;;;7.70;57.30;;;;;;5084782;28;20123;-69
2022/03/07 11:33:37;;;;;;;4.97;3.85;;;7.80;56.10;;;;;;5081799;28;20072;-68
2022/03/07 11:36:05;;;;;;;6.28;3.97;;;7.90;57.10;;;;;;5094769;28;20032;-68
2022/03/07 11:38:32;;;;;;;6.28;4.18;;;7.90;56.70;;;;;;5093192;28;20035;-65
2022/03/07 11:40:57;;;;;;;5.70;3.70;;;8.00;57.80;;;;;;5095026;28;20107;-71
2022/03/07 11:43:24;;;;;;;3.35;3.05;;;8.10;57.40;;;;;;5095724;28;20496;-71
2022/03/07 11:45:51;;;;;;;5.70;3.15;;;8.20;58.30;;;;;;5085552;28;20025;-70
2022/03/07 11:48:16;;;;;;;3.88;3.53;;;8.30;57.90;;;;;;5075510;28;20024;-62
2022/03/07 11:50:42;;;;;;;8.82;3.90;;;8.40;56.00;;;;;;5075115;28;20031;-69
2022/03/07 11:53:08;;;;;;;5.68;3.22;;;8.30;54.40;;;;;;5075076;28;20100;-64
2022/03/07 11:55:43;;;;;;;4.82;3.75;;;8.20;55.70;;;;;;5075310;28;20028;-68
2022/03/07 11:58:08;;;;;;;4.13;2.97;;;8.20;54.40;;;;;;5075011;28;20021;-70
2022/03/07 12:00:36;;;;;;;5.18;3.38;;;8.20;57.40;;;;;;5074973;28;20039;-71
2022/03/07 12:03:14;;;;;;;4.80;3.42;;;8.30;57.30;;;;;;5075331;28;20032;-68
2022/03/07 12:05:41;;;;;;;4.00;3.70;;;8.40;56.20;;;;;;5075025;28;20539;-62
2022/03/07 12:08:18;;;;;;;3.38;2.83;;;8.50;55.90;;;;;;5075150;28;20024;-62
2022/03/07 12:10:59;;;;;;;6.88;4.32;;;8.50;56.80;;;;;;5075327;28;20112;-65
2022/03/07 12:13:25;;;;;;;5.72;3.78;;;8.50;55.30;;;;;;5075057;28;20029;-62
2022/03/07 12:15:53;;;;;;;3.20;2.65;;;8.50;55.10;;;;;;5074980;28;20082;-62
2022/03/07 12:18:20;;;;;;;5.13;3.53;;;8.50;58.50;;;;;;5074778;28;20029;-63
2022/03/07 12:20:51;;;;;;;4.50;4.00;;;8.60;54.70;;;;;;5056798;28;20070;-64
2022/03/07 12:23:18;;;;;;;5.15;3.60;;;8.60;53.50;;;;;;5074616;28;20037;-61
2022/03/07 12:25:45;;;;;;;2.40;2.20;;;8.50;56.60;;;;;;5074881;28;20103;-62
2022/03/07 12:28:11;;;;;;;5.72;3.92;;;8.60;60.40;;;;;;5074696;28;20029;-62
2022/03/07 12:30:37;;;;;;;6.28;3.60;;;8.70;54.30;;;;;;5074708;28;20066;-61
2022/03/07 12:33:07;;;;;;;4.72;3.60;;;8.60;56.20;;;;;;5074640;28;20370;-63
2022/03/07 12:35:33;;;;;;;3.10;2.35;;;8.70;55.50;;;;;;5074101;28;20028;-61
2022/03/07 12:37:58;;;;;;;4.70;3.60;;;8.70;58.80;;;;;;5074615;28;20154;-65
2022/03/07 12:40:24;;;;;;;3.55;3.25;;;8.80;55.70;;;;;;5074313;28;20017;-64
2022/03/07 12:42:50;;;;;;;4.78;3.38;;;8.80;55.50;;;;;;5074575;28;20117;-66
2022/03/07 12:45:19;;;;;;;3.33;2.72;;;8.70;54.00;;;;;;5074308;28;20104;-62
2022/03/07 12:47:45;;;;;;;4.07;3.10;;;8.70;57.50;;;;;;5074429;28;20029;-63